Time;durP1;ratioP1;P1;durP2;ratioP2;P2;SDS_P1;SDS_P2;PMS_P1;PMS_P2;Temp;Humidity;BMP_temperature;BMP_pressure;BME280_temperature;BME280_humidity;BME280_pressure;Samples;Min_cycle;Max_cycle;Signal;HPM_P1;HPM_P2
2023/05/18 00:02:04;;;;;;;2.97;1.50;;;;;;;-142.57;100.00;115900.28;4862352;29;20063;-87
2023/05/18 00:04:33;;;;;;;3.17;1.50;;;;;;;-142.57;100.00;115900.28;4862130;29;20492;-85
2023/05/18 00:07:04;;;;;;;6.07;1.52;;;;;;;-142.57;100.00;115900.28;4845305;29;20041;-85
2023/05/18 00:09:32;;;;;;;5.13;1.60;;;;;;;-142.57;100.00;115900.28;4862231;29;20041;-83
2023/05/18 00:11:58;;;;;;;7.80;2.08;;;;;;;-142.57;100.00;115900.28;4845963;29;20102;-85
2023/05/18 00:14:24;;;;;;;9.13;1.75;;;;;;;-142.57;100.00;115900.28;4845800;29;20026;-85
2023/05/18 00:16:52;;;;;;;8.35;2.20;;;;;;;-142.57;100.00;115900.28;4862754;29;20104;-84
2023/05/18 00:19:19;;;;;;;6.60;2.15;;;;;;;-142.57;100.00;115900.28;4862536;29;20050;-85
2023/05/18 00:21:46;;;;;;;10.65;2.20;;;;;;;-142.57;100.00;115900.28;4845093;29;20114;-85
2023/05/18 00:24:12;;;;;;;8.88;2.85;;;;;;;-142.57;100.00;115900.28;4862709;29;20045;-86
2023/05/18 00:26:39;;;;;;;15.85;2.40;;;;;;;-142.57;100.00;115900.28;4862214;29;20053;-85
2023/05/18 00:29:06;;;;;;;7.65;2.53;;;;;;;-142.57;100.00;115900.28;4845608;29;20025;-83
2023/05/18 00:31:37;;;;;;;7.53;2.78;;;;;;;-142.57;100.00;115900.28;4847237;29;20033;-85
2023/05/18 00:34:07;;;;;;;10.68;2.20;;;;;;;-142.57;100.00;115900.28;4863213;29;20065;-86
2023/05/18 00:36:35;;;;;;;6.40;2.30;;;;;;;-142.57;100.00;115900.28;4845771;29;20093;-86
2023/05/18 00:39:01;;;;;;;6.68;2.30;;;;;;;-142.57;100.00;115900.28;4844681;29;20487;-85
2023/05/18 00:41:27;;;;;;;6.90;2.10;;;;;;;-142.57;100.00;115900.28;4844740;29;20057;-86
2023/05/18 00:43:53;;;;;;;8.88;2.60;;;;;;;-142.57;100.00;115900.28;4844947;29;20129;-85
2023/05/18 00:46:20;;;;;;;16.02;2.30;;;;;;;-142.57;100.00;115900.28;4860852;29;20132;-85
2023/05/18 00:48:47;;;;;;;9.52;2.53;;;;;;;-142.57;100.00;115900.28;4861215;29;20472;-84
2023/05/18 00:51:13;;;;;;;9.65;2.70;;;;;;;-142.57;100.00;115900.28;4861207;29;20476;-85
2023/05/18 00:53:40;;;;;;;8.18;2.67;;;;;;;-142.57;100.00;115900.28;4861520;29;20052;-85
2023/05/18 00:56:06;;;;;;;4.30;2.50;;;;;;;-142.57;100.00;115900.28;4861241;29;20499;-85
2023/05/18 00:58:31;;;;;;;6.47;2.42;;;;;;;-142.57;100.00;115900.28;4844682;29;20041;-85
2023/05/18 01:00:57;;;;;;;5.30;2.25;;;;;;;-142.57;100.00;115900.28;4852025;29;20046;-84
2023/05/18 01:03:23;;;;;;;12.13;2.45;;;;;;;-142.57;100.00;115900.28;4867248;29;20032;-84
2023/05/18 01:05:54;;;;;;;13.05;2.75;;;;;;;-142.57;100.00;115900.28;4847740;29;20046;-86
2023/05/18 01:08:22;;;;;;;10.88;2.70;;;;;;;-142.57;100.00;115900.28;4847710;29;20048;-85
2023/05/18 01:10:59;;;;;;;6.55;2.50;;;;;;;-142.57;100.00;115900.28;4848086;29;20094;-85
2023/05/18 01:13:39;;;;;;;8.27;2.65;;;;;;;-142.57;100.00;115900.28;4864408;29;20500;-86
2023/05/18 01:16:09;;;;;;;6.68;2.60;;;;;;;-142.57;100.00;115900.28;4865192;29;20109;-84
2023/05/18 01:18:45;;;;;;;7.60;2.42;;;;;;;-142.57;100.00;115900.28;4864625;29;20025;-88
2023/05/18 01:21:30;;;;;;;8.88;2.38;;;;;;;-142.57;100.00;115900.28;4847888;29;20473;-85
2023/05/18 01:24:29;;;;;;;7.35;2.55;;;;;;;-142.57;100.00;115900.28;4864470;29;20041;-85
2023/05/18 01:26:59;;;;;;;4.18;2.33;;;;;;;-142.57;100.00;115900.28;4862938;29;20065;-85
2023/05/18 01:29:29;;;;;;;8.88;2.25;;;;;;;-142.57;100.00;115900.28;4847464;29;20029;-83
2023/05/18 01:31:54;;;;;;;14.38;3.10;;;;;;;-142.57;100.00;115900.28;4848049;29;20021;-85
2023/05/18 01:34:20;;;;;;;6.72;2.47;;;;;;;-142.57;100.00;115900.28;4847620;29;20033;-84
2023/05/18 01:36:46;;;;;;;5.75;2.28;;;;;;;-142.57;100.00;115900.28;4848088;29;20029;-85
2023/05/18 01:39:13;;;;;;;6.95;2.40;;;;;;;-142.57;100.00;115900.28;4864731;29;20120;-86
2023/05/18 01:41:49;;;;;;;9.18;2.95;;;;;;;-142.57;100.00;115900.28;4864310;29;20037;-86
2023/05/18 01:44:23;;;;;;;4.40;2.33;;;;;;;-142.57;100.00;115900.28;4847142;29;20040;-84
2023/05/18 01:47:01;;;;;;;4.97;2.38;;;;;;;-142.57;100.00;115900.28;4864297;29;20407;-86
2023/05/18 01:49:35;;;;;;;4.45;2.35;;;;;;;-142.57;100.00;115900.28;4863688;29;20041;-87
2023/05/18 01:52:23;;;;;;;8.80;2.60;;;;;;;-142.57;100.00;115900.28;4847109;29;20057;-85
2023/05/18 01:54:53;;;;;;;6.45;2.28;;;;;;;-142.57;100.00;115900.28;4864545;29;20045;-85
2023/05/18 01:57:24;;;;;;;5.05;2.50;;;;;;;-142.57;100.00;115900.28;4866936;29;20065;-85
2023/05/18 01:59:50;;;;;;;5.68;2.10;;;;;;;-142.57;100.00;115900.28;4847557;29;20049;-84
2023/05/18 02:02:16;;;;;;;4.13;2.22;;;;;;;-142.57;100.00;115900.28;4846651;29;20034;-84
2023/05/18 02:04:42;;;;;;;6.65;2.90;;;;;;;-142.57;100.00;115900.28;4846666;29;20037;-86
2023/05/18 02:07:08;;;;;;;5.38;2.40;;;;;;;-142.57;100.00;115900.28;4831091;29;20080;-86
2023/05/18 02:09:33;;;;;;;10.02;2.75;;;;;;;-142.57;100.00;115900.28;4846817;29;20060;-85
2023/05/18 02:11:59;;;;;;;10.43;2.47;;;;;;;-142.57;100.00;115900.28;4846897;29;20488;-84
2023/05/18 02:14:25;;;;;;;5.90;2.35;;;;;;;-142.57;100.00;115900.28;4846520;29;20182;-84
2023/05/18 02:16:51;;;;;;;13.15;2.90;;;;;;;-142.57;100.00;115900.28;4846992;29;20101;-86
2023/05/18 02:19:20;;;;;;;10.48;2.55;;;;;;;-142.57;100.00;115900.28;4846626;29;20174;-85
2023/05/18 02:21:45;;;;;;;6.18;2.50;;;;;;;-142.57;100.00;115900.28;4846540;29;20037;-86
2023/05/18 02:24:11;;;;;;;7.93;2.40;;;;;;;-142.57;100.00;115900.28;4851250;29;20128;-85
2023/05/18 02:26:37;;;;;;;7.80;2.92;;;;;;;-142.57;100.00;115900.28;4866935;29;20052;-85
2023/05/18 02:29:08;;;;;;;11.13;2.72;;;;;;;-142.57;100.00;115900.28;4848757;29;20045;-85
2023/05/18 02:31:34;;;;;;;8.02;2.60;;;;;;;-142.57;100.00;115900.28;4848362;29;20128;-85
2023/05/18 02:34:00;;;;;;;29.27;3.33;;;;;;;-142.57;100.00;115900.28;4863622;29;20626;-86
2023/05/18 02:36:25;;;;;;;5.88;2.80;;;;;;;-142.57;100.00;115900.28;4863244;29;20042;-86
2023/05/18 02:38:51;;;;;;;14.07;2.90;;;;;;;-142.57;100.00;115900.28;4846439;29;20069;-85
2023/05/18 02:41:17;;;;;;;12.40;2.72;;;;;;;-142.57;100.00;115900.28;4866087;29;20037;-86
2023/05/18 02:43:42;;;;;;;6.38;2.55;;;;;;;-142.57;100.00;115900.28;4847114;29;20576;-85
2023/05/18 02:46:08;;;;;;;15.15;3.00;;;;;;;-142.57;100.00;115900.28;4863793;29;20038;-85
2023/05/18 02:48:33;;;;;;;17.50;2.97;;;;;;;-142.57;100.00;115900.28;4846555;29;20381;-85
2023/05/18 02:50:59;;;;;;;8.98;2.80;;;;;;;-142.57;100.00;115900.28;4846463;29;20073;-86
2023/05/18 02:53:26;;;;;;;8.63;2.92;;;;;;;-142.57;100.00;115900.28;4846487;29;20033;-85
2023/05/18 02:55:57;;;;;;;4.07;3.08;;;;;;;-142.57;100.00;115900.28;4846379;29;20048;-86
2023/05/18 02:58:28;;;;;;;5.82;2.67;;;;;;;-142.57;100.00;115900.28;4845992;29;20038;-87
2023/05/18 03:01:06;;;;;;;9.55;2.92;;;;;;;-142.57;100.00;115900.28;4832390;29;20054;-84
2023/05/18 03:03:38;;;;;;;12.52;2.90;;;;;;;-142.57;100.00;115900.28;4846640;29;20557;-86
2023/05/18 03:06:04;;;;;;;7.22;2.60;;;;;;;-142.57;100.00;115900.28;4846227;29;20045;-85
2023/05/18 03:08:30;;;;;;;11.45;2.88;;;;;;;-142.57;100.00;115900.28;4847046;29;20146;-86
2023/05/18 03:10:57;;;;;;;10.02;2.67;;;;;;;-142.57;100.00;115900.28;4848064;29;20038;-86
2023/05/18 03:13:23;;;;;;;6.50;2.85;;;;;;;-142.57;100.00;115900.28;4862909;29;20030;-85
2023/05/18 03:15:49;;;;;;;16.95;2.65;;;;;;;-142.57;100.00;115900.28;4847299;29;20049;-85
2023/05/18 03:18:16;;;;;;;4.90;2.45;;;;;;;-142.57;100.00;115900.28;4846865;29;20080;-87
2023/05/18 03:20:42;;;;;;;12.18;2.53;;;;;;;-142.57;100.00;115900.28;4865197;29;20071;-83
2023/05/18 03:23:08;;;;;;;12.70;2.47;;;;;;;-142.57;100.00;115900.28;4850122;29;20082;-86
2023/05/18 03:25:36;;;;;;;6.15;2.72;;;;;;;-142.57;100.00;115900.28;4830972;29;20057;-86
2023/05/18 03:28:04;;;;;;;8.73;2.53;;;;;;;-142.57;100.00;115900.28;4845870;29;20033;-86
2023/05/18 03:30:34;;;;;;;8.98;2.97;;;;;;;-142.57;100.00;115900.28;4846043;29;20042;-86
2023/05/18 03:33:00;;;;;;;8.60;2.97;;;;;;;-142.57;100.00;115900.28;4862447;29;20033;-86
2023/05/18 03:35:26;;;;;;;9.43;3.20;;;;;;;-142.57;100.00;115900.28;4831149;29;20097;-85
2023/05/18 03:37:52;;;;;;;9.10;3.13;;;;;;;-142.57;100.00;115900.28;4846416;29;20045;-86
2023/05/18 03:40:18;;;;;;;12.18;2.80;;;;;;;-142.57;100.00;115900.28;4831102;29;20029;-85
2023/05/18 03:42:45;;;;;;;5.70;3.03;;;;;;;-142.57;100.00;115900.28;4846158;29;20034;-85
2023/05/18 03:45:11;;;;;;;14.95;2.80;;;;;;;-142.57;100.00;115900.28;4846612;29;20511;-86
2023/05/18 03:47:37;;;;;;;6.07;2.63;;;;;;;-142.57;100.00;115900.28;4854524;29;20034;-88
2023/05/18 03:50:04;;;;;;;6.75;2.70;;;;;;;-142.57;100.00;115900.28;4867924;29;20480;-85
2023/05/18 03:52:32;;;;;;;12.07;3.00;;;;;;;-142.57;100.00;115900.28;4848146;29;20053;-85
2023/05/18 03:55:03;;;;;;;6.80;3.15;;;;;;;-142.57;100.00;115900.28;4850456;29;20048;-86
2023/05/18 03:57:30;;;;;;;11.68;3.65;;;;;;;-142.57;100.00;115900.28;4848071;29;20437;-86
2023/05/18 03:59:58;;;;;;;5.47;3.03;;;;;;;-142.57;100.00;115900.28;4832724;29;20041;-86
2023/05/18 04:02:24;;;;;;;12.98;3.90;;;;;;;-142.57;100.00;115900.28;4848399;29;20088;-87
2023/05/18 04:04:52;;;;;;;7.78;3.20;;;;;;;-142.57;100.00;115900.28;4845577;29;20095;-86
2023/05/18 04:07:21;;;;;;;9.93;3.38;;;;;;;-142.57;100.00;115900.28;4845568;29;20105;-86
2023/05/18 04:09:47;;;;;;;9.63;3.20;;;;;;;-142.57;100.00;115900.28;4846020;29;20483;-83
2023/05/18 04:12:13;;;;;;;6.72;3.10;;;;;;;-142.57;100.00;115900.28;4865914;29;20429;-86
2023/05/18 04:14:42;;;;;;;8.10;3.40;;;;;;;-142.57;100.00;115900.28;4830222;29;20129;-86
2023/05/18 04:17:08;;;;;;;17.30;3.78;;;;;;;-142.57;100.00;115900.28;4859153;29;20041;-87
2023/05/18 04:19:36;;;;;;;9.20;3.28;;;;;;;-142.57;100.00;115900.28;4879614;29;20037;-86
2023/05/18 04:22:05;;;;;;;10.73;3.53;;;;;;;-142.57;100.00;115900.28;4880418;29;20053;-88
2023/05/18 04:24:31;;;;;;;10.05;3.65;;;;;;;-142.57;100.00;115900.28;4847888;29;20033;-86
2023/05/18 04:26:59;;;;;;;14.38;3.28;;;;;;;-142.57;100.00;115900.28;4863745;29;20044;-85
2023/05/18 04:29:26;;;;;;;6.00;3.70;;;;;;;-142.57;100.00;115900.28;4863576;29;20033;-85
2023/05/18 04:31:58;;;;;;;14.20;3.70;;;;;;;-142.57;100.00;115900.28;4868451;29;20025;-86
2023/05/18 04:34:25;;;;;;;10.50;3.23;;;;;;;-142.57;100.00;115900.28;4866457;29;20045;-83
2023/05/18 04:36:53;;;;;;;4.40;2.53;;;;;;;-142.57;100.00;115900.28;4866234;29;20087;-85
2023/05/18 04:39:19;;;;;;;10.45;2.95;;;;;;;-142.57;100.00;115900.28;4883575;29;20029;-85
2023/05/18 04:41:45;;;;;;;8.27;3.03;;;;;;;-142.57;100.00;115900.28;4867885;29;20041;-87
2023/05/18 04:44:14;;;;;;;7.72;2.80;;;;;;;-142.57;100.00;115900.28;4870253;29;20401;-90
2023/05/18 04:46:40;;;;;;;20.70;2.50;;;;;;;-142.57;100.00;115900.28;4895196;29;20073;-84
2023/05/18 04:49:08;;;;;;;7.07;2.13;;;;;;;-142.57;100.00;115900.28;4888481;29;20061;-84
2023/05/18 04:51:33;;;;;;;11.55;2.85;;;;;;;-142.57;100.00;115900.28;4886573;29;20084;-87
2023/05/18 04:54:02;;;;;;;13.60;2.58;;;;;;;-142.57;100.00;115900.28;4869794;29;20135;-86
2023/05/18 04:56:46;;;;;;;12.02;2.20;;;;;;;-142.57;100.00;115900.28;4893719;23;20180;-86
2023/05/18 04:59:16;;;;;;;5.25;1.70;;;;;;;-142.57;100.00;115900.28;4877514;29;20117;-84
2023/05/18 05:01:42;;;;;;;8.63;2.20;;;;;;;-142.57;100.00;115900.28;4869611;29;20042;-85
2023/05/18 05:04:09;;;;;;;8.23;2.28;;;;;;;-142.57;100.00;115900.28;4870816;29;20079;-82
2023/05/18 05:06:35;;;;;;;18.20;2.30;;;;;;;-142.57;100.00;115900.28;4881772;29;20068;-84
2023/05/18 05:09:04;;;;;;;9.38;2.28;;;;;;;-142.57;100.00;115900.28;4892019;29;20108;-87
2023/05/18 05:11:29;;;;;;;10.88;2.80;;;;;;;-142.57;100.00;115900.28;4887222;29;20123;-86
2023/05/18 05:13:56;;;;;;;16.02;2.53;;;;;;;-142.57;100.00;115900.28;4893964;29;20073;-86
2023/05/18 05:16:21;;;;;;;10.63;2.50;;;;;;;-142.57;100.00;115900.28;4873940;29;20045;-85
2023/05/18 05:18:47;;;;;;;13.50;2.65;;;;;;;-142.57;100.00;115900.28;4887543;29;20029;-84
2023/05/18 05:21:12;;;;;;;9.80;2.13;;;;;;;-142.57;100.00;115900.28;4869272;29;20039;-85
2023/05/18 05:23:38;;;;;;;10.80;2.20;;;;;;;-142.57;100.00;115900.28;4863623;29;20040;-84
2023/05/18 05:26:04;;;;;;;13.48;2.45;;;;;;;-142.57;100.00;115900.28;4876082;29;20080;-87
2023/05/18 05:28:30;;;;;;;7.72;1.90;;;;;;;-142.57;100.00;115900.28;4881243;29;20032;-87
2023/05/18 05:30:55;;;;;;;10.45;2.22;;;;;;;-142.57;100.00;115900.28;4884959;29;20510;-83
2023/05/18 05:33:21;;;;;;;13.88;2.13;;;;;;;-142.57;100.00;115900.28;4883974;29;20041;-85
2023/05/18 05:35:47;;;;;;;4.90;1.70;;;;;;;-142.57;100.00;115900.28;4879460;29;20539;-88
2023/05/18 05:38:13;;;;;;;12.55;1.65;;;;;;;-142.57;100.00;115900.28;4875822;29;20106;-87
2023/05/18 05:40:38;;;;;;;9.18;2.03;;;;;;;-142.57;100.00;115900.28;4871757;29;20038;-83
2023/05/18 05:43:04;;;;;;;4.90;1.73;;;;;;;-142.57;100.00;115900.28;4871303;29;20132;-83
2023/05/18 05:45:31;;;;;;;6.53;1.80;;;;;;;-142.57;100.00;115900.28;4872406;29;20029;-85
2023/05/18 05:48:00;;;;;;;8.07;1.92;;;;;;;-142.57;100.00;115900.28;4870758;29;20040;-84
2023/05/18 05:50:26;;;;;;;11.15;2.05;;;;;;;-142.57;100.00;115900.28;4872422;29;20037;-86
2023/05/18 05:52:55;;;;;;;6.03;2.10;;;;;;;-142.57;100.00;115900.28;4881100;29;20036;-86
2023/05/18 05:55:23;;;;;;;12.43;2.22;;;;;;;-142.57;100.00;115900.28;4899403;29;20044;-84
2023/05/18 05:57:49;;;;;;;6.78;2.15;;;;;;;-142.57;100.00;115900.28;4899062;29;20051;-85
2023/05/18 06:00:15;;;;;;;11.98;2.22;;;;;;;-142.57;100.00;115900.28;4899940;29;20395;-85
2023/05/18 06:02:47;;;;;;;19.67;2.92;;;;;;;-142.57;100.00;115900.28;4900163;29;20045;-87
2023/05/18 06:05:19;;;;;;;8.57;1.75;;;;;;;-142.57;100.00;115900.28;4898960;29;20041;-86
2023/05/18 06:07:45;;;;;;;10.73;2.00;;;;;;;-142.57;100.00;115900.28;4898856;29;20045;-87
2023/05/18 06:10:11;;;;;;;15.40;2.53;;;;;;;-142.57;100.00;115900.28;4899066;29;20132;-82
2023/05/18 06:12:36;;;;;;;17.13;2.80;;;;;;;-142.57;100.00;115900.28;4909088;29;20056;-88
2023/05/18 06:15:02;;;;;;;12.75;2.50;;;;;;;-142.57;100.00;115900.28;4866640;29;20136;-88
2023/05/18 06:17:29;;;;;;;12.20;2.50;;;;;;;-142.57;100.00;115900.28;4880957;29;20040;-89
2023/05/18 06:19:55;;;;;;;10.65;2.30;;;;;;;-142.57;100.00;115900.28;4884362;29;20045;-89
2023/05/18 06:22:21;;;;;;;6.57;2.22;;;;;;;-142.57;100.00;115900.28;4882929;29;20032;-85
2023/05/18 06:25:07;;;;;;;12.43;2.35;;;;;;;-142.57;100.00;115900.28;4869425;29;20041;-85
2023/05/18 06:27:47;;;;;;;10.32;2.15;;;;;;;-142.57;100.00;115900.28;4881771;29;20079;-86
2023/05/18 06:30:23;;;;;;;6.60;2.10;;;;;;;-142.57;100.00;115900.28;4881845;29;20128;-87
2023/05/18 06:33:01;;;;;;;8.80;2.33;;;;;;;-142.57;100.00;115900.28;4880970;29;20105;-87
2023/05/18 06:35:26;;;;;;;7.30;2.25;;;;;;;-142.57;100.00;115900.28;4882813;29;20037;-88
2023/05/18 06:37:52;;;;;;;16.13;2.58;;;;;;;-142.57;100.00;115900.28;4880929;29;20029;-84
2023/05/18 06:40:17;;;;;;;8.38;2.20;;;;;;;-142.57;100.00;115900.28;4882250;29;20041;-90
2023/05/18 06:42:43;;;;;;;8.02;2.67;;;;;;;-142.57;100.00;115900.28;4882942;29;20049;-86
2023/05/18 06:45:30;;;;;;;16.45;2.80;;;;;;;-142.57;100.00;115900.28;4881009;29;20037;-86
2023/05/18 06:48:07;;;;;;;10.88;2.75;;;;;;;-142.57;100.00;115900.28;4879834;29;20609;-88
2023/05/18 06:50:33;;;;;;;7.38;2.17;;;;;;;-142.57;100.00;115900.28;4879798;29;20037;-89
2023/05/18 06:52:59;;;;;;;18.48;3.15;;;;;;;-142.57;100.00;115900.28;4879901;29;20040;-88
2023/05/18 06:55:24;;;;;;;13.05;2.90;;;;;;;-142.57;100.00;115900.28;4880952;29;20369;-84
2023/05/18 06:57:51;;;;;;;13.13;3.03;;;;;;;-142.57;100.00;115900.28;4879862;29;20044;-88
2023/05/18 07:00:17;;;;;;;12.20;2.50;;;;;;;-142.57;100.00;115900.28;4882618;29;20041;-87
2023/05/18 07:02:44;;;;;;;11.18;2.10;;;;;;;-142.57;100.00;115900.28;4882352;29;20041;-86
2023/05/18 07:05:16;;;;;;;10.05;2.00;;;;;;;-142.57;100.00;115900.28;4883082;29;20061;-87
2023/05/18 07:07:42;;;;;;;10.82;2.22;;;;;;;-142.57;100.00;115900.28;4888602;29;20045;-88
2023/05/18 07:10:09;;;;;;;12.85;2.47;;;;;;;-142.57;100.00;115900.28;4887482;29;20033;-88
2023/05/18 07:12:34;;;;;;;9.38;4.55;;;;;;;-142.57;100.00;115900.28;4885671;29;20069;-85
2023/05/18 07:15:10;;;;;;;9.50;2.20;;;;;;;-142.57;100.00;115900.28;4891168;29;20049;-85
2023/05/18 07:17:37;;;;;;;13.43;2.40;;;;;;;-142.57;100.00;115900.28;4887474;29;20207;-83
2023/05/18 07:20:05;;;;;;;12.57;2.30;;;;;;;-142.57;100.00;115900.28;4889984;29;20037;-90
2023/05/18 07:22:32;;;;;;;15.55;2.03;;;;;;;-142.57;100.00;115900.28;4890078;29;20025;-86
2023/05/18 07:25:01;;;;;;;10.05;2.20;;;;;;;-142.57;100.00;115900.28;4888303;29;20041;-86
2023/05/18 07:27:27;;;;;;;10.65;1.80;;;;;;;-142.57;100.00;115900.28;4887885;29;20045;-85
2023/05/18 07:30:22;;;;;;;11.85;2.47;;;;;;;-142.57;100.00;115900.28;4889107;29;20060;-87
2023/05/18 07:32:49;;;;;;;7.72;2.00;;;;;;;-142.57;100.00;115900.28;4890995;29;20044;-87
2023/05/18 07:35:20;;;;;;;11.23;2.38;;;;;;;-142.57;100.00;115900.28;4893376;29;20048;-84
2023/05/18 07:37:45;;;;;;;8.23;2.45;;;;;;;-142.57;100.00;115900.28;4894266;29;20056;-88
2023/05/18 07:40:13;;;;;;;7.28;2.08;;;;;;;-142.57;100.00;115900.28;4887743;29;20132;-84
2023/05/18 07:42:40;;;;;;;7.53;2.45;;;;;;;-142.57;100.00;115900.28;4881217;29;20105;-86
2023/05/18 07:45:09;;;;;;;10.80;2.40;;;;;;;-142.57;100.00;115900.28;4869343;29;20037;-88
2023/05/18 07:47:35;;;;;;;10.73;1.90;;;;;;;-142.57;100.00;115900.28;4878237;29;20080;-85
2023/05/18 07:50:01;;;;;;;13.10;2.40;;;;;;;-142.57;100.00;115900.28;4886635;29;20108;-84
2023/05/18 07:52:26;;;;;;;10.65;1.63;;;;;;;-142.57;100.00;115900.28;4886065;29;20071;-86
2023/05/18 07:54:53;;;;;;;6.78;2.00;;;;;;;-142.57;100.00;115900.28;4870017;29;20532;-86
2023/05/18 07:57:20;;;;;;;5.55;1.83;;;;;;;-142.57;100.00;115900.28;4870469;29;20037;-85
2023/05/18 07:59:47;;;;;;;11.65;1.77;;;;;;;-142.57;100.00;115900.28;4877895;29;20033;-85
2023/05/18 08:02:18;;;;;;;8.02;1.77;;;;;;;-142.57;100.00;115900.28;4887352;29;20041;-83
2023/05/18 08:04:44;;;;;;;13.48;2.13;;;;;;;-142.57;100.00;115900.28;4883999;29;20100;-87
2023/05/18 08:07:11;;;;;;;13.80;2.28;;;;;;;-142.57;100.00;115900.28;4874928;29;20033;-86
2023/05/18 08:09:37;;;;;;;12.85;2.20;;;;;;;-142.57;100.00;115900.28;4875435;29;20034;-88
2023/05/18 08:12:08;;;;;;;14.05;2.10;;;;;;;-142.57;100.00;115900.28;4875825;29;20041;-84
2023/05/18 08:14:33;;;;;;;10.20;1.90;;;;;;;-142.57;100.00;115900.28;4873947;29;20065;-91
2023/05/18 08:16:58;;;;;;;13.35;2.70;;;;;;;-142.57;100.00;115900.28;4888775;29;20146;-87
2023/05/18 08:19:24;;;;;;;12.35;2.13;;;;;;;-142.57;100.00;115900.28;4876360;29;20070;-84
2023/05/18 08:21:50;;;;;;;17.35;1.90;;;;;;;-142.57;100.00;115900.28;4875778;29;20036;-82
2023/05/18 08:24:16;;;;;;;5.38;1.58;;;;;;;-142.57;100.00;115900.28;4876986;29;20398;-86
2023/05/18 08:26:44;;;;;;;7.18;1.55;;;;;;;-142.57;100.00;115900.28;4869899;29;20120;-86
2023/05/18 08:29:10;;;;;;;11.60;2.25;;;;;;;-142.57;100.00;115900.28;4876935;29;20100;-93
2023/05/18 08:31:42;;;;;;;10.05;1.90;;;;;;;-142.57;100.00;115900.28;4875001;29;20077;-89
2023/05/18 08:34:08;;;;;;;7.18;1.88;;;;;;;-142.57;100.00;115900.28;4879098;29;20029;-85
2023/05/18 08:36:36;;;;;;;15.30;2.03;;;;;;;-142.57;100.00;115900.28;4877149;29;20065;-84
2023/05/18 08:39:04;;;;;;;10.95;1.80;;;;;;;-142.57;100.00;115900.28;4876506;29;20045;-89
2023/05/18 08:41:37;;;;;;;7.30;1.95;;;;;;;-142.57;100.00;115900.28;4878294;29;20044;-87
2023/05/18 08:44:14;;;;;;;13.07;1.60;;;;;;;-142.57;100.00;115900.28;4874237;29;20056;-86
2023/05/18 08:46:46;;;;;;;9.07;1.60;;;;;;;-142.57;100.00;115900.28;4867861;29;20116;-87
2023/05/18 08:49:15;;;;;;;10.32;1.77;;;;;;;-142.57;100.00;115900.28;4871500;29;20490;-90
2023/05/18 08:51:56;;;;;;;15.43;1.92;;;;;;;-142.57;100.00;115900.28;4879331;29;20037;-88
2023/05/18 08:54:25;;;;;;;10.95;1.80;;;;;;;-142.57;100.00;115900.28;4877611;29;20408;-87
2023/05/18 08:56:52;;;;;;;7.07;1.75;;;;;;;-142.57;100.00;115900.28;4873977;29;20487;-87
2023/05/18 08:59:23;;;;;;;8.77;1.50;;;;;;;-142.57;100.00;115900.28;4875277;29;20042;-87
2023/05/18 09:01:50;;;;;;;13.80;2.13;;;;;;;-142.57;100.00;115900.28;4884813;29;20052;-86
2023/05/18 09:04:17;;;;;;;4.07;1.35;;;;;;;-142.57;94.18;115900.28;4873140;29;20052;-88
2023/05/18 09:06:45;;;;;;;11.60;1.45;;;;;;;-142.57;91.45;115900.28;4869521;29;20535;-88
2023/05/18 09:09:12;;;;;;;3.55;1.10;;;;;;;-142.57;83.61;115900.28;4870822;29;20035;-89
2023/05/18 09:11:38;;;;;;;7.07;1.33;;;;;;;-142.57;85.81;115900.28;4874929;29;20035;-87
2023/05/18 09:14:04;;;;;;;7.43;1.15;;;;;;;-142.57;88.16;115900.28;4867832;29;20037;-88
2023/05/18 09:16:30;;;;;;;7.15;1.65;;;;;;;-142.57;86.40;115900.28;4870645;29;20025;-90
2023/05/18 09:18:56;;;;;;;6.00;0.90;;;;;;;-142.57;89.06;115900.28;4872227;29;20104;-87
2023/05/18 09:21:22;;;;;;;2.38;0.80;;;;;;;-142.57;83.66;115900.28;4877392;29;20128;-89
2023/05/18 09:23:47;;;;;;;9.00;0.98;;;;;;;-142.57;78.74;115900.28;4882031;29;20029;-88
2023/05/18 09:26:13;;;;;;;10.75;1.38;;;;;;;-142.57;74.34;115900.28;4884932;29;20404;-88
2023/05/18 09:28:41;;;;;;;6.43;0.70;;;;;;;-142.57;75.19;115900.28;4883992;29;20448;-90
2023/05/18 09:31:16;;;;;;;1.88;0.70;;;;;;;-142.57;72.24;115900.28;4881813;29;20057;-84
2023/05/18 09:33:43;;;;;;;2.30;0.60;;;;;;;-142.57;77.50;115900.28;4882093;29;20059;-89
2023/05/18 09:36:10;;;;;;;2.70;0.60;;;;;;;-142.57;75.90;115900.28;4881837;29;20100;-86
2023/05/18 09:38:44;;;;;;;3.80;0.70;;;;;;;-142.57;77.75;115900.28;4882015;29;20105;-86
2023/05/18 09:41:11;;;;;;;4.47;0.70;;;;;;;-142.57;74.36;115900.28;4882293;29;20045;-88
2023/05/18 09:43:37;;;;;;;4.57;1.00;;;;;;;-142.57;69.91;115900.28;4883276;29;20048;-87
2023/05/18 09:46:07;;;;;;;6.00;1.20;;;;;;;-142.57;71.27;115900.28;4882885;29;20123;-86
2023/05/18 09:48:35;;;;;;;2.30;0.63;;;;;;;-142.57;62.33;115900.28;4881562;29;20036;-84
2023/05/18 09:51:03;;;;;;;2.60;0.98;;;;;;;-142.57;63.26;115900.28;4881747;29;20432;-88
2023/05/18 09:53:28;;;;;;;6.45;0.90;;;;;;;-142.57;61.49;115900.28;4882326;29;20123;-85
2023/05/18 09:55:54;;;;;;;4.28;1.10;;;;;;;-142.57;61.00;115900.28;4882193;29;20488;-86
2023/05/18 09:58:20;;;;;;;3.72;0.70;;;;;;;-142.57;60.16;115900.28;4886081;29;20112;-86
2023/05/18 10:00:50;;;;;;;6.30;0.70;;;;;;;-142.57;55.72;115900.28;4895109;29;20037;-89
2023/05/18 10:03:23;;;;;;;13.35;1.52;;;;;;;-142.57;55.37;115900.28;4894389;29;20100;-86
2023/05/18 10:05:49;;;;;;;3.40;0.85;;;;;;;-142.57;57.04;115900.28;4882837;29;20033;-87
2023/05/18 10:08:16;;;;;;;2.15;0.60;;;;;;;-142.57;55.60;115900.28;4879678;29;20045;-85
2023/05/18 10:10:48;;;;;;;2.83;0.93;;;;;;;-142.57;54.68;115900.28;4894089;29;20029;-88
2023/05/18 10:13:17;;;;;;;2.15;0.60;;;;;;;-142.57;52.35;115900.28;4882164;29;21079;-89
2023/05/18 10:15:52;;;;;;;4.28;0.82;;;;;;;-142.57;54.41;115900.28;4888485;29;20396;-86
2023/05/18 10:18:29;;;;;;;5.80;0.82;;;;;;;-142.57;54.40;115900.28;4881601;29;20448;-90
2023/05/18 10:21:07;;;;;;;11.15;1.20;;;;;;;-142.57;52.63;115900.28;4895079;29;20037;-88
2023/05/18 10:23:35;;;;;;;4.28;0.60;;;;;;;-142.57;52.63;115900.28;4886995;29;20049;-88
2023/05/18 10:26:06;;;;;;;2.75;0.80;;;;;;;-142.57;52.69;115900.28;4895425;29;20037;-84
2023/05/18 10:28:46;;;;;;;5.07;0.80;;;;;;;-142.57;53.92;115900.28;4883019;29;20507;-89
2023/05/18 10:31:14;;;;;;;5.30;1.00;;;;;;;-142.57;53.81;115900.28;4883517;29;20044;-84
2023/05/18 10:33:40;;;;;;;3.97;0.80;;;;;;;-142.57;51.63;115900.28;4881091;29;20049;-86
2023/05/18 10:36:07;;;;;;;4.50;0.50;;;;;;;-142.57;50.63;115900.28;4882769;29;20380;-90
2023/05/18 10:38:38;;;;;;;4.07;0.85;;;;;;;-142.57;49.10;115900.28;4881997;29;20472;-86
2023/05/18 10:41:04;;;;;;;6.82;1.05;;;;;;;-142.57;51.58;115900.28;4882606;29;20372;-87
2023/05/18 10:43:32;;;;;;;6.13;1.30;;;;;;;-142.57;52.31;115900.28;4884724;29;20047;-90
2023/05/18 10:46:20;;;;;;;7.75;1.13;;;;;;;-142.57;53.32;115900.28;4888674;29;20045;-86
2023/05/18 10:48:50;;;;;;;4.53;0.70;;;;;;;-142.57;53.36;115900.28;4884649;29;20021;-84
2023/05/18 10:51:19;;;;;;;3.58;0.65;;;;;;;-142.57;51.25;115900.28;4893286;29;20495;-89
2023/05/18 10:53:46;;;;;;;3.00;0.70;;;;;;;-142.57;48.44;115900.28;4882794;29;20041;-89
2023/05/18 10:56:14;;;;;;;5.35;0.70;;;;;;;-142.57;47.98;115900.28;4884454;29;20124;-91
2023/05/18 10:58:41;;;;;;;8.85;0.90;;;;;;;-142.57;46.07;115900.28;4881172;29;20041;-88
2023/05/18 11:01:10;;;;;;;1.92;0.60;;;;;;;-142.57;44.20;115900.28;4880646;29;20053;-88
2023/05/18 11:03:39;;;;;;;3.28;0.60;;;;;;;-142.57;44.56;115900.28;4882016;29;20049;-88
2023/05/18 11:06:07;;;;;;;4.07;0.93;;;;;;;-142.57;43.81;115900.28;4882702;29;20037;-89